Terminal Aerodrome Forecast
Issued by NWS Pueblo, CO

Home | Current Version | Previous Version | Text Only | Print | Product List | Glossary On
Versions: 1 2 3 4 5 6 7 8 9 10 11 12 13 14 15 16 17 18 19 20 21 22 23 24 25 26 27 28 29 30 31 32 33 34 35 36
000
FTUS45 KPUB 252125 AAC
TAFALS
TAF AMD
KALS 252125Z 2521/2618 33015KT 5SM -SHRASN SCT012 BKN020
      TEMPO 2521/2601 3SM -SN BR BKN012
     FM260200 36012KT P6SM VCSH BKN030
     FM260700 01005KT P6SM SCT150=

USA.gov is the U.S. government's official web portal to all federal, state and local government web resources and services.